sensor_id;sensor_type;location;lat;lon;timestamp;temperature;humidity
8979;DHT22;4524;51.364;5.448;2023-04-22T00:00:14;8.70;99.90
8979;DHT22;4524;51.364;5.448;2023-04-22T00:02:43;8.70;99.90
8979;DHT22;4524;51.364;5.448;2023-04-22T00:05:11;8.70;99.90
8979;DHT22;4524;51.364;5.448;2023-04-22T00:07:46;8.60;99.90
8979;DHT22;4524;51.364;5.448;2023-04-22T00:10:14;8.60;99.90
8979;DHT22;4524;51.364;5.448;2023-04-22T00:12:42;8.60;96.70
8979;DHT22;4524;51.364;5.448;2023-04-22T00:15:10;8.60;99.90
8979;DHT22;4524;51.364;5.448;2023-04-22T00:17:39;8.60;99.90
8979;DHT22;4524;51.364;5.448;2023-04-22T00:20:09;8.50;99.90
8979;DHT22;4524;51.364;5.448;2023-04-22T00:22:38;8.60;99.90
8979;DHT22;4524;51.364;5.448;2023-04-22T00:25:08;8.60;86.40
8979;DHT22;4524;51.364;5.448;2023-04-22T00:27:36;8.50;73.30
8979;DHT22;4524;51.364;5.448;2023-04-22T00:30:04;8.60;99.90
8979;DHT22;4524;51.364;5.448;2023-04-22T00:32:32;8.60;99.90
8979;DHT22;4524;51.364;5.448;2023-04-22T00:35:00;8.60;93.60
8979;DHT22;4524;51.364;5.448;2023-04-22T00:37:29;8.60;99.90
8979;DHT22;4524;51.364;5.448;2023-04-22T00:39:56;8.60;99.90
8979;DHT22;4524;51.364;5.448;2023-04-22T00:42:26;8.60;98.00
8979;DHT22;4524;51.364;5.448;2023-04-22T00:44:54;8.70;96.60
8979;DHT22;4524;51.364;5.448;2023-04-22T00:47:23;8.70;99.90
8979;DHT22;4524;51.364;5.448;2023-04-22T00:49:53;8.70;92.00
8979;DHT22;4524;51.364;5.448;2023-04-22T00:52:22;8.70;96.10
8979;DHT22;4524;51.364;5.448;2023-04-22T00:54:50;8.70;82.80
8979;DHT22;4524;51.364;5.448;2023-04-22T00:57:18;8.80;64.30
8979;DHT22;4524;51.364;5.448;2023-04-22T00:59:48;8.70;44.40
8979;DHT22;4524;51.364;5.448;2023-04-22T01:02:16;8.70;99.90
8979;DHT22;4524;51.364;5.448;2023-04-22T01:04:45;8.70;99.90
8979;DHT22;4524;51.364;5.448;2023-04-22T01:07:13;8.80;99.90
8979;DHT22;4524;51.364;5.448;2023-04-22T01:09:41;8.80;99.90
8979;DHT22;4524;51.364;5.448;2023-04-22T01:12:09;8.80;99.90
8979;DHT22;4524;51.364;5.448;2023-04-22T01:14:38;8.80;99.90
8979;DHT22;4524;51.364;5.448;2023-04-22T01:17:07;8.70;99.90
8979;DHT22;4524;51.364;5.448;2023-04-22T01:19:38;8.80;99.90
8979;DHT22;4524;51.364;5.448;2023-04-22T01:22:07;8.80;99.90
8979;DHT22;4524;51.364;5.448;2023-04-22T01:24:38;8.80;99.90
8979;DHT22;4524;51.364;5.448;2023-04-22T01:27:07;8.80;99.90
8979;DHT22;4524;51.364;5.448;2023-04-22T01:29:36;8.80;99.90
8979;DHT22;4524;51.364;5.448;2023-04-22T01:32:05;8.80;99.90
8979;DHT22;4524;51.364;5.448;2023-04-22T01:34:33;8.80;99.90
8979;DHT22;4524;51.364;5.448;2023-04-22T01:37:01;8.80;99.90
8979;DHT22;4524;51.364;5.448;2023-04-22T01:39:29;8.80;99.90
8979;DHT22;4524;51.364;5.448;2023-04-22T01:41:58;8.80;99.90
8979;DHT22;4524;51.364;5.448;2023-04-22T01:44:27;8.90;99.90
8979;DHT22;4524;51.364;5.448;2023-04-22T01:46:55;8.90;99.90
8979;DHT22;4524;51.364;5.448;2023-04-22T01:49:23;8.90;99.90
8979;DHT22;4524;51.364;5.448;2023-04-22T01:51:51;9.00;99.90
8979;DHT22;4524;51.364;5.448;2023-04-22T01:54:19;9.00;99.90
8979;DHT22;4524;51.364;5.448;2023-04-22T01:56:50;9.00;99.90
8979;DHT22;4524;51.364;5.448;2023-04-22T01:59:19;8.90;99.90
8979;DHT22;4524;51.364;5.448;2023-04-22T02:01:49;8.90;99.90
8979;DHT22;4524;51.364;5.448;2023-04-22T02:04:17;8.90;99.90
8979;DHT22;4524;51.364;5.448;2023-04-22T02:06:45;8.90;99.90
8979;DHT22;4524;51.364;5.448;2023-04-22T02:09:13;8.90;99.90
8979;DHT22;4524;51.364;5.448;2023-04-22T02:11:41;8.90;97.60
8979;DHT22;4524;51.364;5.448;2023-04-22T02:14:09;8.80;99.90
8979;DHT22;4524;51.364;5.448;2023-04-22T02:16:39;8.70;99.90
8979;DHT22;4524;51.364;5.448;2023-04-22T02:19:07;8.60;99.90
8979;DHT22;4524;51.364;5.448;2023-04-22T02:21:35;8.50;99.90
8979;DHT22;4524;51.364;5.448;2023-04-22T02:24:04;8.60;99.90
8979;DHT22;4524;51.364;5.448;2023-04-22T02:26:32;8.50;99.90
8979;DHT22;4524;51.364;5.448;2023-04-22T02:29:00;8.50;99.90
8979;DHT22;4524;51.364;5.448;2023-04-22T02:31:28;8.60;99.90
8979;DHT22;4524;51.364;5.448;2023-04-22T02:33:58;8.60;99.90
8979;DHT22;4524;51.364;5.448;2023-04-22T02:36:26;8.70;99.90
8979;DHT22;4524;51.364;5.448;2023-04-22T02:38:54;8.60;99.90
8979;DHT22;4524;51.364;5.448;2023-04-22T02:41:22;8.60;99.90
8979;DHT22;4524;51.364;5.448;2023-04-22T02:43:51;8.60;99.90
8979;DHT22;4524;51.364;5.448;2023-04-22T02:46:18;8.70;99.90
8979;DHT22;4524;51.364;5.448;2023-04-22T02:48:46;8.60;99.90
8979;DHT22;4524;51.364;5.448;2023-04-22T02:51:17;8.70;99.90
8979;DHT22;4524;51.364;5.448;2023-04-22T02:53:45;8.60;99.90
8979;DHT22;4524;51.364;5.448;2023-04-22T02:56:13;8.60;99.90
8979;DHT22;4524;51.364;5.448;2023-04-22T02:58:41;8.70;99.90
8979;DHT22;4524;51.364;5.448;2023-04-22T03:01:09;8.60;99.90
8979;DHT22;4524;51.364;5.448;2023-04-22T03:03:38;8.70;99.90
8979;DHT22;4524;51.364;5.448;2023-04-22T03:06:09;8.70;99.90
8979;DHT22;4524;51.364;5.448;2023-04-22T03:08:38;8.80;82.50
8979;DHT22;4524;51.364;5.448;2023-04-22T03:11:06;8.70;95.80
8979;DHT22;4524;51.364;5.448;2023-04-22T03:13:34;8.60;99.90
8979;DHT22;4524;51.364;5.448;2023-04-22T03:16:02;8.60;99.90
8979;DHT22;4524;51.364;5.448;2023-04-22T03:18:30;8.70;99.90
8979;DHT22;4524;51.364;5.448;2023-04-22T03:20:58;8.70;99.90
8979;DHT22;4524;51.364;5.448;2023-04-22T03:23:26;8.70;99.90
8979;DHT22;4524;51.364;5.448;2023-04-22T03:25:56;8.70;99.90
8979;DHT22;4524;51.364;5.448;2023-04-22T03:28:24;8.60;99.90
8979;DHT22;4524;51.364;5.448;2023-04-22T03:30:52;8.70;99.90
8979;DHT22;4524;51.364;5.448;2023-04-22T03:33:20;8.70;99.90
8979;DHT22;4524;51.364;5.448;2023-04-22T03:35:54;8.60;99.90
8979;DHT22;4524;51.364;5.448;2023-04-22T03:38:23;8.70;99.90
8979;DHT22;4524;51.364;5.448;2023-04-22T03:40:50;8.90;99.90
8979;DHT22;4524;51.364;5.448;2023-04-22T03:43:41;8.80;88.00
8979;DHT22;4524;51.364;5.448;2023-04-22T03:46:10;8.80;79.30
8979;DHT22;4524;51.364;5.448;2023-04-22T03:48:42;8.80;99.90
8979;DHT22;4524;51.364;5.448;2023-04-22T03:51:20;8.80;99.90
8979;DHT22;4524;51.364;5.448;2023-04-22T03:53:48;8.80;99.90
8979;DHT22;4524;51.364;5.448;2023-04-22T03:56:19;8.80;99.90
8979;DHT22;4524;51.364;5.448;2023-04-22T03:58:49;8.70;99.90
8979;DHT22;4524;51.364;5.448;2023-04-22T04:01:17;8.70;99.90
8979;DHT22;4524;51.364;5.448;2023-04-22T04:03:49;8.70;99.90
8979;DHT22;4524;51.364;5.448;2023-04-22T04:06:18;8.60;99.90
8979;DHT22;4524;51.364;5.448;2023-04-22T04:08:47;8.60;99.90
8979;DHT22;4524;51.364;5.448;2023-04-22T04:11:15;8.60;99.90
8979;DHT22;4524;51.364;5.448;2023-04-22T04:13:43;8.60;99.90
8979;DHT22;4524;51.364;5.448;2023-04-22T04:16:18;8.50;99.90
8979;DHT22;4524;51.364;5.448;2023-04-22T04:18:52;8.50;99.90
8979;DHT22;4524;51.364;5.448;2023-04-22T04:21:22;8.60;99.90
8979;DHT22;4524;51.364;5.448;2023-04-22T04:23:51;8.70;99.90
8979;DHT22;4524;51.364;5.448;2023-04-22T04:26:24;8.70;99.90
8979;DHT22;4524;51.364;5.448;2023-04-22T04:28:58;8.80;96.90
8979;DHT22;4524;51.364;5.448;2023-04-22T04:31:29;8.80;92.00
8979;DHT22;4524;51.364;5.448;2023-04-22T04:33:58;8.80;94.60
8979;DHT22;4524;51.364;5.448;2023-04-22T04:36:26;8.80;95.60
8979;DHT22;4524;51.364;5.448;2023-04-22T04:39:05;8.80;79.80
8979;DHT22;4524;51.364;5.448;2023-04-22T04:41:35;8.80;99.90
8979;DHT22;4524;51.364;5.448;2023-04-22T04:44:05;8.90;91.70
8979;DHT22;4524;51.364;5.448;2023-04-22T04:46:37;9.00;63.40
8979;DHT22;4524;51.364;5.448;2023-04-22T04:49:06;8.90;68.10
8979;DHT22;4524;51.364;5.448;2023-04-22T04:51:47;9.00;68.20
8979;DHT22;4524;51.364;5.448;2023-04-22T04:54:15;8.90;70.50
8979;DHT22;4524;51.364;5.448;2023-04-22T04:56:44;8.80;89.70
8979;DHT22;4524;51.364;5.448;2023-04-22T04:59:12;8.90;65.50
8979;DHT22;4524;51.364;5.448;2023-04-22T05:01:42;8.70;91.40
8979;DHT22;4524;51.364;5.448;2023-04-22T05:04:11;8.60;99.90
8979;DHT22;4524;51.364;5.448;2023-04-22T05:06:42;8.50;99.90
8979;DHT22;4524;51.364;5.448;2023-04-22T05:09:11;8.50;99.90
8979;DHT22;4524;51.364;5.448;2023-04-22T05:11:41;8.50;99.90
8979;DHT22;4524;51.364;5.448;2023-04-22T05:14:17;8.50;99.90
8979;DHT22;4524;51.364;5.448;2023-04-22T05:16:47;8.50;99.90
8979;DHT22;4524;51.364;5.448;2023-04-22T05:19:15;8.60;99.90
8979;DHT22;4524;51.364;5.448;2023-04-22T05:21:45;8.60;99.90
8979;DHT22;4524;51.364;5.448;2023-04-22T05:24:14;8.70;99.90
8979;DHT22;4524;51.364;5.448;2023-04-22T05:26:42;8.70;99.90
8979;DHT22;4524;51.364;5.448;2023-04-22T05:29:17;8.80;99.90
8979;DHT22;4524;51.364;5.448;2023-04-22T05:31:46;8.80;99.90
8979;DHT22;4524;51.364;5.448;2023-04-22T05:34:14;8.80;99.90
8979;DHT22;4524;51.364;5.448;2023-04-22T05:36:42;9.00;99.90
8979;DHT22;4524;51.364;5.448;2023-04-22T05:39:10;9.00;99.90
8979;DHT22;4524;51.364;5.448;2023-04-22T05:41:39;9.10;99.90
8979;DHT22;4524;51.364;5.448;2023-04-22T05:44:09;9.00;99.90
8979;DHT22;4524;51.364;5.448;2023-04-22T05:46:38;9.10;99.90
8979;DHT22;4524;51.364;5.448;2023-04-22T05:49:07;9.10;99.90
8979;DHT22;4524;51.364;5.448;2023-04-22T05:52:14;9.20;99.90
8979;DHT22;4524;51.364;5.448;2023-04-22T05:54:54;9.40;99.90
8979;DHT22;4524;51.364;5.448;2023-04-22T05:57:22;9.60;99.90
8979;DHT22;4524;51.364;5.448;2023-04-22T05:59:50;9.60;99.90
8979;DHT22;4524;51.364;5.448;2023-04-22T06:02:18;9.80;99.90
8979;DHT22;4524;51.364;5.448;2023-04-22T06:04:47;9.90;99.90
8979;DHT22;4524;51.364;5.448;2023-04-22T06:07:16;10.10;99.90
8979;DHT22;4524;51.364;5.448;2023-04-22T06:09:44;10.20;99.90
8979;DHT22;4524;51.364;5.448;2023-04-22T06:12:13;10.30;99.90
8979;DHT22;4524;51.364;5.448;2023-04-22T06:14:41;10.30;99.90
8979;DHT22;4524;51.364;5.448;2023-04-22T06:17:09;10.40;99.90
8979;DHT22;4524;51.364;5.448;2023-04-22T06:19:37;10.40;99.90
8979;DHT22;4524;51.364;5.448;2023-04-22T06:22:07;10.50;99.90
8979;DHT22;4524;51.364;5.448;2023-04-22T06:24:35;10.50;99.90
8979;DHT22;4524;51.364;5.448;2023-04-22T06:27:02;10.60;99.90
8979;DHT22;4524;51.364;5.448;2023-04-22T06:29:30;10.60;99.90
8979;DHT22;4524;51.364;5.448;2023-04-22T06:31:58;10.70;99.90
8979;DHT22;4524;51.364;5.448;2023-04-22T06:34:26;10.80;99.90
8979;DHT22;4524;51.364;5.448;2023-04-22T06:36:54;11.00;99.90
8979;DHT22;4524;51.364;5.448;2023-04-22T06:39:24;10.90;99.90
8979;DHT22;4524;51.364;5.448;2023-04-22T06:42:04;11.00;99.90
8979;DHT22;4524;51.364;5.448;2023-04-22T06:45:08;11.10;99.90
8979;DHT22;4524;51.364;5.448;2023-04-22T06:47:51;11.20;99.90
8979;DHT22;4524;51.364;5.448;2023-04-22T06:50:29;11.30;99.90
8979;DHT22;4524;51.364;5.448;2023-04-22T06:52:58;11.40;99.90
8979;DHT22;4524;51.364;5.448;2023-04-22T06:55:27;11.50;99.90
8979;DHT22;4524;51.364;5.448;2023-04-22T06:57:56;11.50;99.90
8979;DHT22;4524;51.364;5.448;2023-04-22T07:00:25;11.50;99.90
8979;DHT22;4524;51.364;5.448;2023-04-22T07:02:53;11.60;99.90
8979;DHT22;4524;51.364;5.448;2023-04-22T07:05:21;11.80;99.90
8979;DHT22;4524;51.364;5.448;2023-04-22T07:07:49;12.00;99.90
8979;DHT22;4524;51.364;5.448;2023-04-22T07:10:20;12.20;99.90
8979;DHT22;4524;51.364;5.448;2023-04-22T07:13:09;12.50;99.90
8979;DHT22;4524;51.364;5.448;2023-04-22T07:15:37;13.00;99.90
8979;DHT22;4524;51.364;5.448;2023-04-22T07:18:05;13.20;99.90
8979;DHT22;4524;51.364;5.448;2023-04-22T07:20:33;13.20;15.30
8979;DHT22;4524;51.364;5.448;2023-04-22T07:23:01;13.10;54.30
8979;DHT22;4524;51.364;5.448;2023-04-22T07:25:29;13.10;96.00
8979;DHT22;4524;51.364;5.448;2023-04-22T07:27:57;13.20;27.30
8979;DHT22;4524;51.364;5.448;2023-04-22T07:30:26;13.40;86.50
8979;DHT22;4524;51.364;5.448;2023-04-22T07:32:54;13.60;51.00
8979;DHT22;4524;51.364;5.448;2023-04-22T07:35:22;13.70;1.00
8979;DHT22;4524;51.364;5.448;2023-04-22T07:37:50;13.70;1.00
8979;DHT22;4524;51.364;5.448;2023-04-22T07:40:18;13.70;1.00
8979;DHT22;4524;51.364;5.448;2023-04-22T07:42:46;13.90;1.00
8979;DHT22;4524;51.364;5.448;2023-04-22T07:45:14;14.00;1.00
8979;DHT22;4524;51.364;5.448;2023-04-22T07:47:43;14.10;1.00
8979;DHT22;4524;51.364;5.448;2023-04-22T07:50:11;14.00;1.00
8979;DHT22;4524;51.364;5.448;2023-04-22T07:52:39;14.10;1.00
8979;DHT22;4524;51.364;5.448;2023-04-22T07:55:07;14.20;1.00
8979;DHT22;4524;51.364;5.448;2023-04-22T07:57:35;14.20;1.00
8979;DHT22;4524;51.364;5.448;2023-04-22T08:00:05;14.40;1.00
8979;DHT22;4524;51.364;5.448;2023-04-22T08:02:39;14.40;1.00
8979;DHT22;4524;51.364;5.448;2023-04-22T08:05:08;14.40;1.00
8979;DHT22;4524;51.364;5.448;2023-04-22T08:07:36;14.50;1.00
8979;DHT22;4524;51.364;5.448;2023-04-22T08:10:04;14.60;99.90
8979;DHT22;4524;51.364;5.448;2023-04-22T08:12:32;15.00;99.90
8979;DHT22;4524;51.364;5.448;2023-04-22T08:15:00;15.20;99.90
8979;DHT22;4524;51.364;5.448;2023-04-22T08:17:28;15.40;99.90
8979;DHT22;4524;51.364;5.448;2023-04-22T08:19:56;15.50;99.90
8979;DHT22;4524;51.364;5.448;2023-04-22T08:22:25;15.90;99.90
8979;DHT22;4524;51.364;5.448;2023-04-22T08:24:53;16.10;99.90
8979;DHT22;4524;51.364;5.448;2023-04-22T08:27:20;16.10;99.90
8979;DHT22;4524;51.364;5.448;2023-04-22T08:29:48;16.20;99.90
8979;DHT22;4524;51.364;5.448;2023-04-22T08:32:16;16.20;99.90
8979;DHT22;4524;51.364;5.448;2023-04-22T08:34:45;16.10;99.90
8979;DHT22;4524;51.364;5.448;2023-04-22T08:37:13;16.10;99.90
8979;DHT22;4524;51.364;5.448;2023-04-22T08:39:42;16.00;99.90
8979;DHT22;4524;51.364;5.448;2023-04-22T08:42:09;16.10;99.90
8979;DHT22;4524;51.364;5.448;2023-04-22T08:44:38;16.30;99.90
8979;DHT22;4524;51.364;5.448;2023-04-22T08:47:06;16.40;99.90
8979;DHT22;4524;51.364;5.448;2023-04-22T08:49:34;16.40;99.90
8979;DHT22;4524;51.364;5.448;2023-04-22T08:52:02;16.50;99.90
8979;DHT22;4524;51.364;5.448;2023-04-22T08:54:30;16.60;99.90
8979;DHT22;4524;51.364;5.448;2023-04-22T08:57:01;16.70;99.90
8979;DHT22;4524;51.364;5.448;2023-04-22T08:59:29;16.70;99.90
8979;DHT22;4524;51.364;5.448;2023-04-22T09:01:57;16.80;99.90
8979;DHT22;4524;51.364;5.448;2023-04-22T09:04:26;16.70;99.90
8979;DHT22;4524;51.364;5.448;2023-04-22T09:06:54;16.60;99.90
8979;DHT22;4524;51.364;5.448;2023-04-22T09:09:22;16.60;99.90
8979;DHT22;4524;51.364;5.448;2023-04-22T09:11:50;16.80;99.90
8979;DHT22;4524;51.364;5.448;2023-04-22T09:14:19;16.50;99.90
8979;DHT22;4524;51.364;5.448;2023-04-22T09:16:48;16.60;99.90
8979;DHT22;4524;51.364;5.448;2023-04-22T09:19:16;16.50;99.90
8979;DHT22;4524;51.364;5.448;2023-04-22T09:21:43;16.70;99.90
8979;DHT22;4524;51.364;5.448;2023-04-22T09:24:14;17.00;99.90
8979;DHT22;4524;51.364;5.448;2023-04-22T09:26:42;16.80;99.90
8979;DHT22;4524;51.364;5.448;2023-04-22T09:29:12;16.70;99.90
8979;DHT22;4524;51.364;5.448;2023-04-22T09:31:41;16.70;99.90
8979;DHT22;4524;51.364;5.448;2023-04-22T09:34:14;16.70;99.90
8979;DHT22;4524;51.364;5.448;2023-04-22T09:36:42;17.00;99.90
8979;DHT22;4524;51.364;5.448;2023-04-22T09:39:12;16.90;99.90
8979;DHT22;4524;51.364;5.448;2023-04-22T09:41:40;16.60;99.90
8979;DHT22;4524;51.364;5.448;2023-04-22T09:44:08;16.60;99.90
8979;DHT22;4524;51.364;5.448;2023-04-22T09:46:36;17.10;99.90
8979;DHT22;4524;51.364;5.448;2023-04-22T09:49:05;16.90;99.90
8979;DHT22;4524;51.364;5.448;2023-04-22T09:51:34;17.10;99.90
8979;DHT22;4524;51.364;5.448;2023-04-22T09:54:06;17.60;99.90
8979;DHT22;4524;51.364;5.448;2023-04-22T09:56:39;17.80;99.90
8979;DHT22;4524;51.364;5.448;2023-04-22T09:59:07;17.60;99.90
8979;DHT22;4524;51.364;5.448;2023-04-22T10:01:35;18.00;99.90
8979;DHT22;4524;51.364;5.448;2023-04-22T10:04:06;17.90;99.90
8979;DHT22;4524;51.364;5.448;2023-04-22T10:06:35;17.60;99.90
8979;DHT22;4524;51.364;5.448;2023-04-22T10:09:03;17.20;99.90
8979;DHT22;4524;51.364;5.448;2023-04-22T10:11:34;17.30;99.90
8979;DHT22;4524;51.364;5.448;2023-04-22T10:14:03;17.40;99.90
8979;DHT22;4524;51.364;5.448;2023-04-22T10:16:31;17.60;99.90
8979;DHT22;4524;51.364;5.448;2023-04-22T10:19:00;17.90;99.90
8979;DHT22;4524;51.364;5.448;2023-04-22T10:21:31;17.70;99.90
8979;DHT22;4524;51.364;5.448;2023-04-22T10:23:59;17.70;99.90
8979;DHT22;4524;51.364;5.448;2023-04-22T10:26:46;18.00;99.90
8979;DHT22;4524;51.364;5.448;2023-04-22T10:29:14;18.00;99.90
8979;DHT22;4524;51.364;5.448;2023-04-22T10:31:43;18.50;99.90
8979;DHT22;4524;51.364;5.448;2023-04-22T10:34:11;19.00;99.90
8979;DHT22;4524;51.364;5.448;2023-04-22T10:36:52;19.20;99.90
8979;DHT22;4524;51.364;5.448;2023-04-22T10:39:20;19.00;99.90
8979;DHT22;4524;51.364;5.448;2023-04-22T10:41:49;18.70;99.90
8979;DHT22;4524;51.364;5.448;2023-04-22T10:44:18;18.30;99.90
8979;DHT22;4524;51.364;5.448;2023-04-22T10:46:58;18.20;99.90
8979;DHT22;4524;51.364;5.448;2023-04-22T10:49:28;17.90;99.90
8979;DHT22;4524;51.364;5.448;2023-04-22T10:51:58;17.50;99.90
8979;DHT22;4524;51.364;5.448;2023-04-22T10:57:13;17.40;99.90
8979;DHT22;4524;51.364;5.448;2023-04-22T10:59:42;17.30;99.90
8979;DHT22;4524;51.364;5.448;2023-04-22T11:02:14;17.20;99.90
8979;DHT22;4524;51.364;5.448;2023-04-22T11:04:42;17.20;99.90
8979;DHT22;4524;51.364;5.448;2023-04-22T11:07:14;17.10;99.90
8979;DHT22;4524;51.364;5.448;2023-04-22T11:09:43;17.10;99.90
8979;DHT22;4524;51.364;5.448;2023-04-22T11:14:57;17.30;99.90
8979;DHT22;4524;51.364;5.448;2023-04-22T11:17:25;17.40;99.90
8979;DHT22;4524;51.364;5.448;2023-04-22T11:19:53;17.20;99.90
8979;DHT22;4524;51.364;5.448;2023-04-22T11:22:23;17.30;99.90
8979;DHT22;4524;51.364;5.448;2023-04-22T11:24:54;17.30;99.90
8979;DHT22;4524;51.364;5.448;2023-04-22T11:27:22;17.40;99.90
8979;DHT22;4524;51.364;5.448;2023-04-22T11:29:59;17.40;99.90
8979;DHT22;4524;51.364;5.448;2023-04-22T11:32:27;17.30;99.90
8979;DHT22;4524;51.364;5.448;2023-04-22T11:34:55;17.20;99.90
8979;DHT22;4524;51.364;5.448;2023-04-22T11:37:24;17.30;99.90
8979;DHT22;4524;51.364;5.448;2023-04-22T11:39:53;17.30;99.90
8979;DHT22;4524;51.364;5.448;2023-04-22T11:42:45;17.50;99.90
8979;DHT22;4524;51.364;5.448;2023-04-22T11:45:13;17.50;99.90
8979;DHT22;4524;51.364;5.448;2023-04-22T11:47:41;17.50;99.90
8979;DHT22;4524;51.364;5.448;2023-04-22T11:50:12;17.40;99.90
8979;DHT22;4524;51.364;5.448;2023-04-22T11:52:45;17.70;99.90
8979;DHT22;4524;51.364;5.448;2023-04-22T11:55:14;18.10;99.90
8979;DHT22;4524;51.364;5.448;2023-04-22T11:57:42;18.30;99.90
8979;DHT22;4524;51.364;5.448;2023-04-22T12:00:10;18.20;99.90
8979;DHT22;4524;51.364;5.448;2023-04-22T12:02:39;18.20;99.90
8979;DHT22;4524;51.364;5.448;2023-04-22T12:05:08;18.20;99.90
8979;DHT22;4524;51.364;5.448;2023-04-22T12:07:36;18.20;99.90
8979;DHT22;4524;51.364;5.448;2023-04-22T12:10:06;18.30;99.90
8979;DHT22;4524;51.364;5.448;2023-04-22T12:12:34;18.40;99.90
8979;DHT22;4524;51.364;5.448;2023-04-22T12:15:06;18.40;99.90
8979;DHT22;4524;51.364;5.448;2023-04-22T12:17:34;18.30;99.90
8979;DHT22;4524;51.364;5.448;2023-04-22T12:20:02;18.10;99.90
8979;DHT22;4524;51.364;5.448;2023-04-22T12:22:31;18.00;99.90
8979;DHT22;4524;51.364;5.448;2023-04-22T12:25:00;18.10;99.90
8979;DHT22;4524;51.364;5.448;2023-04-22T12:27:30;18.00;99.90
8979;DHT22;4524;51.364;5.448;2023-04-22T12:29:58;17.90;99.90
8979;DHT22;4524;51.364;5.448;2023-04-22T12:32:25;17.90;99.90
8979;DHT22;4524;51.364;5.448;2023-04-22T12:34:53;17.90;99.90
8979;DHT22;4524;51.364;5.448;2023-04-22T12:37:21;17.70;99.90
8979;DHT22;4524;51.364;5.448;2023-04-22T12:39:49;17.60;99.90
8979;DHT22;4524;51.364;5.448;2023-04-22T12:42:17;17.50;99.90
8979;DHT22;4524;51.364;5.448;2023-04-22T12:44:46;17.40;99.90
8979;DHT22;4524;51.364;5.448;2023-04-22T12:47:14;17.20;99.90
8979;DHT22;4524;51.364;5.448;2023-04-22T12:49:43;17.10;99.90
8979;DHT22;4524;51.364;5.448;2023-04-22T12:52:13;17.00;99.90
8979;DHT22;4524;51.364;5.448;2023-04-22T12:54:40;16.80;99.90
8979;DHT22;4524;51.364;5.448;2023-04-22T12:57:08;16.60;99.90
8979;DHT22;4524;51.364;5.448;2023-04-22T12:59:36;16.60;99.90
8979;DHT22;4524;51.364;5.448;2023-04-22T13:02:05;16.60;1.00
8979;DHT22;4524;51.364;5.448;2023-04-22T13:04:33;16.50;1.00
8979;DHT22;4524;51.364;5.448;2023-04-22T13:07:01;16.60;1.00
8979;DHT22;4524;51.364;5.448;2023-04-22T13:09:29;16.80;1.00
8979;DHT22;4524;51.364;5.448;2023-04-22T13:11:56;17.10;99.90
8979;DHT22;4524;51.364;5.448;2023-04-22T13:14:25;17.20;99.90
8979;DHT22;4524;51.364;5.448;2023-04-22T13:16:52;17.30;1.00
8979;DHT22;4524;51.364;5.448;2023-04-22T13:19:22;17.30;99.90
8979;DHT22;4524;51.364;5.448;2023-04-22T13:21:52;17.30;99.90
8979;DHT22;4524;51.364;5.448;2023-04-22T13:24:20;17.20;99.90
8979;DHT22;4524;51.364;5.448;2023-04-22T13:26:47;17.10;99.90
8979;DHT22;4524;51.364;5.448;2023-04-22T13:29:15;17.10;99.90
8979;DHT22;4524;51.364;5.448;2023-04-22T13:31:43;17.20;99.90
8979;DHT22;4524;51.364;5.448;2023-04-22T13:34:11;17.10;99.90
8979;DHT22;4524;51.364;5.448;2023-04-22T13:36:42;17.00;99.90
8979;DHT22;4524;51.364;5.448;2023-04-22T13:39:10;17.10;99.90
8979;DHT22;4524;51.364;5.448;2023-04-22T13:41:37;17.10;99.90
8979;DHT22;4524;51.364;5.448;2023-04-22T13:44:05;17.10;99.90
8979;DHT22;4524;51.364;5.448;2023-04-22T13:46:33;17.10;99.90
8979;DHT22;4524;51.364;5.448;2023-04-22T13:49:01;17.10;99.90
8979;DHT22;4524;51.364;5.448;2023-04-22T13:51:29;17.20;99.90
8979;DHT22;4524;51.364;5.448;2023-04-22T13:53:59;17.30;99.90
8979;DHT22;4524;51.364;5.448;2023-04-22T13:56:26;17.40;99.90
8979;DHT22;4524;51.364;5.448;2023-04-22T13:58:54;17.40;99.90
8979;DHT22;4524;51.364;5.448;2023-04-22T14:01:23;17.40;99.90
8979;DHT22;4524;51.364;5.448;2023-04-22T14:03:52;17.20;99.90
8979;DHT22;4524;51.364;5.448;2023-04-22T14:06:20;17.00;99.90
8979;DHT22;4524;51.364;5.448;2023-04-22T14:08:48;16.90;99.90
8979;DHT22;4524;51.364;5.448;2023-04-22T14:11:17;16.70;99.90
8979;DHT22;4524;51.364;5.448;2023-04-22T14:13:45;16.60;99.90
8979;DHT22;4524;51.364;5.448;2023-04-22T14:16:13;16.50;99.90
8979;DHT22;4524;51.364;5.448;2023-04-22T14:18:41;16.30;99.90
8979;DHT22;4524;51.364;5.448;2023-04-22T14:21:11;16.40;99.90
8979;DHT22;4524;51.364;5.448;2023-04-22T14:23:39;16.30;1.00
8979;DHT22;4524;51.364;5.448;2023-04-22T14:26:08;16.40;99.90
8979;DHT22;4524;51.364;5.448;2023-04-22T14:28:37;16.40;99.90
8979;DHT22;4524;51.364;5.448;2023-04-22T14:31:05;16.40;1.00
8979;DHT22;4524;51.364;5.448;2023-04-22T14:33:33;16.40;1.00
8979;DHT22;4524;51.364;5.448;2023-04-22T14:36:01;16.30;1.00
8979;DHT22;4524;51.364;5.448;2023-04-22T14:38:29;16.20;99.90
8979;DHT22;4524;51.364;5.448;2023-04-22T14:40:56;16.30;1.00
8979;DHT22;4524;51.364;5.448;2023-04-22T14:43:24;16.20;1.00
8979;DHT22;4524;51.364;5.448;2023-04-22T14:45:53;16.20;99.90
8979;DHT22;4524;51.364;5.448;2023-04-22T14:48:21;16.10;99.90
8979;DHT22;4524;51.364;5.448;2023-04-22T14:50:50;16.10;1.00
8979;DHT22;4524;51.364;5.448;2023-04-22T14:53:18;16.00;1.00
8979;DHT22;4524;51.364;5.448;2023-04-22T14:55:46;16.00;1.00
8979;DHT22;4524;51.364;5.448;2023-04-22T14:58:14;16.00;1.00
8979;DHT22;4524;51.364;5.448;2023-04-22T15:00:41;16.00;2.80
8979;DHT22;4524;51.364;5.448;2023-04-22T15:03:11;15.90;1.00
8979;DHT22;4524;51.364;5.448;2023-04-22T15:05:38;15.80;1.00
8979;DHT22;4524;51.364;5.448;2023-04-22T15:08:06;15.80;1.00
8979;DHT22;4524;51.364;5.448;2023-04-22T15:10:34;15.80;1.00
8979;DHT22;4524;51.364;5.448;2023-04-22T15:13:02;15.80;27.10
8979;DHT22;4524;51.364;5.448;2023-04-22T15:15:30;15.80;1.00
8979;DHT22;4524;51.364;5.448;2023-04-22T15:17:57;15.80;1.00
8979;DHT22;4524;51.364;5.448;2023-04-22T15:20:26;15.70;1.00
8979;DHT22;4524;51.364;5.448;2023-04-22T15:22:54;15.80;1.00
8979;DHT22;4524;51.364;5.448;2023-04-22T15:25:22;15.70;1.00
8979;DHT22;4524;51.364;5.448;2023-04-22T15:27:52;15.70;1.00
8979;DHT22;4524;51.364;5.448;2023-04-22T15:30:22;15.70;5.50
8979;DHT22;4524;51.364;5.448;2023-04-22T15:32:50;15.70;65.60
8979;DHT22;4524;51.364;5.448;2023-04-22T15:35:17;15.60;1.00
8979;DHT22;4524;51.364;5.448;2023-04-22T15:37:47;15.70;23.20
8979;DHT22;4524;51.364;5.448;2023-04-22T15:40:15;15.60;1.00
8979;DHT22;4524;51.364;5.448;2023-04-22T15:42:43;15.60;75.10
8979;DHT22;4524;51.364;5.448;2023-04-22T15:45:11;15.70;48.60
8979;DHT22;4524;51.364;5.448;2023-04-22T15:47:38;15.70;96.10
8979;DHT22;4524;51.364;5.448;2023-04-22T15:50:07;15.60;26.00
8979;DHT22;4524;51.364;5.448;2023-04-22T15:52:35;15.40;99.90
8979;DHT22;4524;51.364;5.448;2023-04-22T15:55:05;15.50;1.00
8979;DHT22;4524;51.364;5.448;2023-04-22T15:57:33;15.60;99.90
8979;DHT22;4524;51.364;5.448;2023-04-22T16:00:01;15.50;7.30
8979;DHT22;4524;51.364;5.448;2023-04-22T16:02:40;15.60;1.00
8979;DHT22;4524;51.364;5.448;2023-04-22T16:05:08;15.70;1.00
8979;DHT22;4524;51.364;5.448;2023-04-22T16:07:36;15.60;1.00
8979;DHT22;4524;51.364;5.448;2023-04-22T16:10:06;15.70;90.50
8979;DHT22;4524;51.364;5.448;2023-04-22T16:12:34;15.80;1.00
8979;DHT22;4524;51.364;5.448;2023-04-22T16:15:02;15.70;1.00
8979;DHT22;4524;51.364;5.448;2023-04-22T16:17:31;15.70;99.90
8979;DHT22;4524;51.364;5.448;2023-04-22T16:19:58;15.50;99.90
8979;DHT22;4524;51.364;5.448;2023-04-22T16:22:26;15.20;99.90
8979;DHT22;4524;51.364;5.448;2023-04-22T16:24:54;15.20;99.90
8979;DHT22;4524;51.364;5.448;2023-04-22T16:27:23;15.10;99.90